sensor_id;sensor_type;location;lat;lon;timestamp;P1;durP1;ratioP1;P2;durP2;ratioP2
54261;SDS011;40174;52.364;6.452;2024-03-23T00:55:12;6.53;;;2.10;;
54261;SDS011;40174;52.364;6.452;2024-03-23T00:57:37;12.10;;;1.95;;
54261;SDS011;40174;52.364;6.452;2024-03-23T01:00:05;10.88;;;2.20;;
54261;SDS011;40174;52.364;6.452;2024-03-23T01:02:31;22.25;;;2.50;;
54261;SDS011;40174;52.364;6.452;2024-03-23T01:04:57;5.53;;;1.67;;
54261;SDS011;40174;52.364;6.452;2024-03-23T01:07:23;15.63;;;2.20;;
54261;SDS011;40174;52.364;6.452;2024-03-23T01:09:50;10.38;;;2.63;;
54261;SDS011;40174;52.364;6.452;2024-03-23T01:12:18;14.02;;;2.75;;
54261;SDS011;40174;52.364;6.452;2024-03-23T01:14:45;8.35;;;1.90;;
54261;SDS011;40174;52.364;6.452;2024-03-23T01:17:10;6.90;;;1.90;;
54261;SDS011;40174;52.364;6.452;2024-03-23T01:19:37;11.02;;;2.30;;
54261;SDS011;40174;52.364;6.452;2024-03-23T01:22:04;12.13;;;1.98;;
54261;SDS011;40174;52.364;6.452;2024-03-23T01:24:31;15.85;;;2.58;;
54261;SDS011;40174;52.364;6.452;2024-03-23T01:26:57;12.25;;;2.90;;
54261;SDS011;40174;52.364;6.452;2024-03-23T01:29:25;12.38;;;2.42;;
54261;SDS011;40174;52.364;6.452;2024-03-23T01:31:50;7.70;;;2.67;;
54261;SDS011;40174;52.364;6.452;2024-03-23T01:34:17;14.93;;;2.38;;
54261;SDS011;40174;52.364;6.452;2024-03-23T01:36:43;6.95;;;1.88;;
54261;SDS011;40174;52.364;6.452;2024-03-23T01:39:11;5.93;;;2.50;;
54261;SDS011;40174;52.364;6.452;2024-03-23T01:41:37;9.07;;;2.15;;
54261;SDS011;40174;52.364;6.452;2024-03-23T01:44:05;10.02;;;2.13;;
54261;SDS011;40174;52.364;6.452;2024-03-23T01:46:32;11.70;;;2.63;;
54261;SDS011;40174;52.364;6.452;2024-03-23T01:49:00;12.20;;;2.30;;
54261;SDS011;40174;52.364;6.452;2024-03-23T01:51:26;7.80;;;2.47;;
54261;SDS011;40174;52.364;6.452;2024-03-23T01:53:53;8.98;;;2.00;;
54261;SDS011;40174;52.364;6.452;2024-03-23T01:56:19;9.02;;;1.65;;
54261;SDS011;40174;52.364;6.452;2024-03-23T01:58:46;7.95;;;2.67;;
54261;SDS011;40174;52.364;6.452;2024-03-23T02:01:12;11.93;;;2.65;;
54261;SDS011;40174;52.364;6.452;2024-03-23T02:03:40;8.35;;;1.88;;
54261;SDS011;40174;52.364;6.452;2024-03-23T02:06:05;9.93;;;2.85;;
54261;SDS011;40174;52.364;6.452;2024-03-23T02:08:33;12.95;;;2.75;;
54261;SDS011;40174;52.364;6.452;2024-03-23T02:11:00;9.95;;;1.75;;
54261;SDS011;40174;52.364;6.452;2024-03-23T02:13:26;12.05;;;3.72;;
54261;SDS011;40174;52.364;6.452;2024-03-23T02:15:52;9.52;;;1.92;;
54261;SDS011;40174;52.364;6.452;2024-03-23T02:18:18;12.82;;;2.47;;
54261;SDS011;40174;52.364;6.452;2024-03-23T02:20:45;7.22;;;2.80;;
54261;SDS011;40174;52.364;6.452;2024-03-23T02:23:16;10.60;;;2.50;;
54261;SDS011;40174;52.364;6.452;2024-03-23T02:25:43;13.43;;;3.05;;
54261;SDS011;40174;52.364;6.452;2024-03-23T02:28:10;5.00;;;2.30;;
54261;SDS011;40174;52.364;6.452;2024-03-23T02:30:36;12.93;;;2.47;;
54261;SDS011;40174;52.364;6.452;2024-03-23T02:33:02;11.52;;;2.22;;
54261;SDS011;40174;52.364;6.452;2024-03-23T02:35:28;6.60;;;2.38;;
54261;SDS011;40174;52.364;6.452;2024-03-23T02:37:55;11.85;;;2.95;;
54261;SDS011;40174;52.364;6.452;2024-03-23T02:40:24;13.32;;;2.42;;
54261;SDS011;40174;52.364;6.452;2024-03-23T02:42:50;12.07;;;3.13;;
54261;SDS011;40174;52.364;6.452;2024-03-23T02:45:16;9.63;;;2.22;;
54261;SDS011;40174;52.364;6.452;2024-03-23T02:47:43;13.23;;;2.65;;
54261;SDS011;40174;52.364;6.452;2024-03-23T02:50:11;12.90;;;3.10;;
54261;SDS011;40174;52.364;6.452;2024-03-23T02:52:40;12.25;;;2.97;;
54261;SDS011;40174;52.364;6.452;2024-03-23T02:55:05;15.15;;;3.47;;
54261;SDS011;40174;52.364;6.452;2024-03-23T02:57:34;21.27;;;3.15;;
54261;SDS011;40174;52.364;6.452;2024-03-23T02:59:59;15.18;;;2.92;;
54261;SDS011;40174;52.364;6.452;2024-03-23T03:02:26;14.05;;;4.28;;
54261;SDS011;40174;52.364;6.452;2024-03-23T03:04:52;11.68;;;2.65;;
54261;SDS011;40174;52.364;6.452;2024-03-23T03:07:18;14.73;;;3.13;;
54261;SDS011;40174;52.364;6.452;2024-03-23T03:09:44;9.90;;;3.03;;
54261;SDS011;40174;52.364;6.452;2024-03-23T03:12:10;21.80;;;4.35;;
54261;SDS011;40174;52.364;6.452;2024-03-23T03:14:37;11.68;;;3.08;;
54261;SDS011;40174;52.364;6.452;2024-03-23T03:17:04;9.55;;;3.22;;
54261;SDS011;40174;52.364;6.452;2024-03-23T03:19:30;15.32;;;2.75;;
54261;SDS011;40174;52.364;6.452;2024-03-23T03:21:57;12.27;;;3.47;;
54261;SDS011;40174;52.364;6.452;2024-03-23T03:24:23;13.13;;;3.35;;
54261;SDS011;40174;52.364;6.452;2024-03-23T03:26:49;18.63;;;3.15;;
54261;SDS011;40174;52.364;6.452;2024-03-23T03:29:15;11.63;;;3.75;;
54261;SDS011;40174;52.364;6.452;2024-03-23T03:31:43;9.10;;;2.58;;
54261;SDS011;40174;52.364;6.452;2024-03-23T03:34:08;16.98;;;3.75;;
54261;SDS011;40174;52.364;6.452;2024-03-23T03:36:35;15.38;;;2.85;;
54261;SDS011;40174;52.364;6.452;2024-03-23T03:39:01;9.35;;;3.25;;
54261;SDS011;40174;52.364;6.452;2024-03-23T03:41:28;13.30;;;4.43;;
54261;SDS011;40174;52.364;6.452;2024-03-23T03:43:53;20.13;;;3.85;;
54261;SDS011;40174;52.364;6.452;2024-03-23T03:46:20;14.13;;;3.03;;
54261;SDS011;40174;52.364;6.452;2024-03-23T03:48:47;11.38;;;3.38;;
54261;SDS011;40174;52.364;6.452;2024-03-23T03:51:14;19.05;;;3.28;;
54261;SDS011;40174;52.364;6.452;2024-03-23T03:53:39;8.90;;;2.35;;
54261;SDS011;40174;52.364;6.452;2024-03-23T03:56:06;8.23;;;2.78;;
54261;SDS011;40174;52.364;6.452;2024-03-23T03:58:32;8.35;;;2.70;;
54261;SDS011;40174;52.364;6.452;2024-03-23T04:00:58;15.15;;;3.47;;
54261;SDS011;40174;52.364;6.452;2024-03-23T04:03:24;19.83;;;4.72;;
54261;SDS011;40174;52.364;6.452;2024-03-23T04:05:52;12.50;;;3.40;;
54261;SDS011;40174;52.364;6.452;2024-03-23T04:08:19;12.02;;;2.92;;
54261;SDS011;40174;52.364;6.452;2024-03-23T04:10:45;9.88;;;3.42;;
54261;SDS011;40174;52.364;6.452;2024-03-23T04:13:11;14.27;;;2.72;;
54261;SDS011;40174;52.364;6.452;2024-03-23T04:15:38;7.53;;;3.53;;
54261;SDS011;40174;52.364;6.452;2024-03-23T04:18:04;7.75;;;3.03;;
54261;SDS011;40174;52.364;6.452;2024-03-23T04:20:31;16.63;;;4.05;;
54261;SDS011;40174;52.364;6.452;2024-03-23T04:22:59;11.30;;;3.72;;
54261;SDS011;40174;52.364;6.452;2024-03-23T04:25:25;10.65;;;3.65;;
54261;SDS011;40174;52.364;6.452;2024-03-23T04:27:51;12.52;;;2.85;;
54261;SDS011;40174;52.364;6.452;2024-03-23T04:30:17;12.57;;;4.32;;
54261;SDS011;40174;52.364;6.452;2024-03-23T04:32:44;16.02;;;3.25;;
54261;SDS011;40174;52.364;6.452;2024-03-23T04:35:11;13.80;;;3.95;;
54261;SDS011;40174;52.364;6.452;2024-03-23T04:37:38;13.23;;;3.72;;
54261;SDS011;40174;52.364;6.452;2024-03-23T04:40:07;11.25;;;3.72;;
54261;SDS011;40174;52.364;6.452;2024-03-23T04:42:34;9.25;;;3.28;;
54261;SDS011;40174;52.364;6.452;2024-03-23T04:45:01;15.82;;;3.35;;
54261;SDS011;40174;52.364;6.452;2024-03-23T04:47:27;8.82;;;3.15;;
54261;SDS011;40174;52.364;6.452;2024-03-23T04:49:54;22.45;;;3.78;;
54261;SDS011;40174;52.364;6.452;2024-03-23T04:52:21;14.70;;;3.42;;
54261;SDS011;40174;52.364;6.452;2024-03-23T04:54:49;9.43;;;3.45;;
54261;SDS011;40174;52.364;6.452;2024-03-23T04:57:17;13.00;;;3.90;;
54261;SDS011;40174;52.364;6.452;2024-03-23T04:59:45;9.23;;;2.78;;
54261;SDS011;40174;52.364;6.452;2024-03-23T05:02:12;5.65;;;2.53;;
54261;SDS011;40174;52.364;6.452;2024-03-23T05:04:40;18.33;;;3.92;;
54261;SDS011;40174;52.364;6.452;2024-03-23T05:07:06;13.20;;;3.67;;
54261;SDS011;40174;52.364;6.452;2024-03-23T05:09:33;9.00;;;3.35;;
54261;SDS011;40174;52.364;6.452;2024-03-23T05:11:58;8.60;;;3.28;;
54261;SDS011;40174;52.364;6.452;2024-03-23T05:14:26;17.00;;;4.03;;
54261;SDS011;40174;52.364;6.452;2024-03-23T05:16:52;14.30;;;4.07;;
54261;SDS011;40174;52.364;6.452;2024-03-23T05:19:19;12.38;;;4.65;;
54261;SDS011;40174;52.364;6.452;2024-03-23T05:21:44;7.00;;;2.75;;
54261;SDS011;40174;52.364;6.452;2024-03-23T05:24:11;13.18;;;3.85;;
54261;SDS011;40174;52.364;6.452;2024-03-23T05:26:37;16.27;;;4.53;;
54261;SDS011;40174;52.364;6.452;2024-03-23T05:29:04;15.65;;;4.47;;
54261;SDS011;40174;52.364;6.452;2024-03-23T05:31:33;12.73;;;3.60;;
54261;SDS011;40174;52.364;6.452;2024-03-23T05:33:59;11.88;;;4.22;;
54261;SDS011;40174;52.364;6.452;2024-03-23T05:36:25;13.43;;;3.80;;
54261;SDS011;40174;52.364;6.452;2024-03-23T05:38:52;10.95;;;3.70;;
54261;SDS011;40174;52.364;6.452;2024-03-23T05:41:17;14.25;;;4.95;;
54261;SDS011;40174;52.364;6.452;2024-03-23T05:43:44;16.35;;;4.32;;
54261;SDS011;40174;52.364;6.452;2024-03-23T05:46:10;20.35;;;6.32;;
54261;SDS011;40174;52.364;6.452;2024-03-23T05:48:38;10.23;;;4.57;;
54261;SDS011;40174;52.364;6.452;2024-03-23T05:51:04;11.35;;;4.13;;
54261;SDS011;40174;52.364;6.452;2024-03-23T05:53:31;17.98;;;4.78;;
54261;SDS011;40174;52.364;6.452;2024-03-23T05:56:01;12.20;;;3.55;;
54261;SDS011;40174;52.364;6.452;2024-03-23T05:58:30;23.27;;;4.32;;
54261;SDS011;40174;52.364;6.452;2024-03-23T06:00:59;11.10;;;3.33;;
54261;SDS011;40174;52.364;6.452;2024-03-23T06:03:27;11.68;;;3.60;;
54261;SDS011;40174;52.364;6.452;2024-03-23T06:05:55;9.90;;;3.70;;
54261;SDS011;40174;52.364;6.452;2024-03-23T06:08:22;11.32;;;3.25;;
54261;SDS011;40174;52.364;6.452;2024-03-23T06:10:49;9.93;;;3.55;;
54261;SDS011;40174;52.364;6.452;2024-03-23T06:13:16;16.33;;;3.70;;
54261;SDS011;40174;52.364;6.452;2024-03-23T06:15:42;10.27;;;3.72;;
54261;SDS011;40174;52.364;6.452;2024-03-23T06:18:08;12.27;;;2.78;;
54261;SDS011;40174;52.364;6.452;2024-03-23T06:20:34;8.95;;;3.97;;
54261;SDS011;40174;52.364;6.452;2024-03-23T06:23:02;16.38;;;3.90;;
54261;SDS011;40174;52.364;6.452;2024-03-23T06:25:29;10.48;;;3.55;;
54261;SDS011;40174;52.364;6.452;2024-03-23T06:27:55;15.38;;;3.33;;
54261;SDS011;40174;52.364;6.452;2024-03-23T06:30:24;10.73;;;3.30;;
54261;SDS011;40174;52.364;6.452;2024-03-23T06:32:49;7.95;;;2.80;;
54261;SDS011;40174;52.364;6.452;2024-03-23T06:35:16;13.45;;;3.40;;
54261;SDS011;40174;52.364;6.452;2024-03-23T06:37:41;12.93;;;2.47;;
54261;SDS011;40174;52.364;6.452;2024-03-23T06:40:09;10.57;;;2.60;;
54261;SDS011;40174;52.364;6.452;2024-03-23T06:42:36;11.13;;;2.47;;
54261;SDS011;40174;52.364;6.452;2024-03-23T06:45:03;7.82;;;2.20;;
54261;SDS011;40174;52.364;6.452;2024-03-23T06:47:30;8.57;;;1.63;;
54261;SDS011;40174;52.364;6.452;2024-03-23T06:49:56;7.97;;;2.15;;
54261;SDS011;40174;52.364;6.452;2024-03-23T06:52:23;7.43;;;1.98;;
54261;SDS011;40174;52.364;6.452;2024-03-23T06:54:49;3.45;;;1.42;;
54261;SDS011;40174;52.364;6.452;2024-03-23T06:57:17;2.33;;;0.95;;
54261;SDS011;40174;52.364;6.452;2024-03-23T06:59:42;4.25;;;0.85;;
54261;SDS011;40174;52.364;6.452;2024-03-23T07:02:09;2.00;;;0.73;;
54261;SDS011;40174;52.364;6.452;2024-03-23T07:04:35;7.65;;;1.17;;
54261;SDS011;40174;52.364;6.452;2024-03-23T07:07:01;5.13;;;0.90;;
54261;SDS011;40174;52.364;6.452;2024-03-23T07:09:27;5.03;;;0.70;;
54261;SDS011;40174;52.364;6.452;2024-03-23T07:11:54;1.63;;;0.77;;
54261;SDS011;40174;52.364;6.452;2024-03-23T07:14:21;5.00;;;0.63;;
54261;SDS011;40174;52.364;6.452;2024-03-23T07:16:49;4.20;;;0.63;;
54261;SDS011;40174;52.364;6.452;2024-03-23T07:19:15;1.80;;;0.55;;
54261;SDS011;40174;52.364;6.452;2024-03-23T07:21:42;4.93;;;0.60;;
54261;SDS011;40174;52.364;6.452;2024-03-23T07:24:08;2.47;;;0.93;;
54261;SDS011;40174;52.364;6.452;2024-03-23T07:26:34;1.20;;;0.45;;
54261;SDS011;40174;52.364;6.452;2024-03-23T07:29:00;1.38;;;0.40;;
54261;SDS011;40174;52.364;6.452;2024-03-23T07:31:28;4.53;;;0.43;;
54261;SDS011;40174;52.364;6.452;2024-03-23T07:33:54;2.38;;;0.43;;
54261;SDS011;40174;52.364;6.452;2024-03-23T07:36:20;4.32;;;0.82;;
54261;SDS011;40174;52.364;6.452;2024-03-23T07:38:46;0.95;;;0.32;;
54261;SDS011;40174;52.364;6.452;2024-03-23T07:41:15;1.40;;;0.93;;
54261;SDS011;40174;52.364;6.452;2024-03-23T07:43:42;5.63;;;0.40;;
54261;SDS011;40174;52.364;6.452;2024-03-23T07:46:09;2.42;;;0.68;;
54261;SDS011;40174;52.364;6.452;2024-03-23T07:48:36;0.68;;;0.50;;
54261;SDS011;40174;52.364;6.452;2024-03-23T07:51:04;5.65;;;1.02;;
54261;SDS011;40174;52.364;6.452;2024-03-23T07:53:31;2.97;;;1.20;;
54261;SDS011;40174;52.364;6.452;2024-03-23T07:56:01;2.60;;;0.80;;
54261;SDS011;40174;52.364;6.452;2024-03-23T07:58:28;1.08;;;0.68;;
54261;SDS011;40174;52.364;6.452;2024-03-23T08:00:55;4.57;;;0.95;;
54261;SDS011;40174;52.364;6.452;2024-03-23T08:03:21;9.95;;;1.48;;
54261;SDS011;40174;52.364;6.452;2024-03-23T08:05:50;7.82;;;1.10;;
54261;SDS011;40174;52.364;6.452;2024-03-23T08:08:15;5.03;;;1.48;;
54261;SDS011;40174;52.364;6.452;2024-03-23T08:10:48;7.10;;;1.35;;
54261;SDS011;40174;52.364;6.452;2024-03-23T08:13:14;5.22;;;1.27;;
54261;SDS011;40174;52.364;6.452;2024-03-23T08:15:41;10.05;;;1.38;;
54261;SDS011;40174;52.364;6.452;2024-03-23T08:18:07;7.57;;;2.15;;
54261;SDS011;40174;52.364;6.452;2024-03-23T08:20:33;9.80;;;1.58;;
54261;SDS011;40174;52.364;6.452;2024-03-23T08:23:00;8.40;;;2.35;;
54261;SDS011;40174;52.364;6.452;2024-03-23T08:25:27;5.70;;;1.60;;
54261;SDS011;40174;52.364;6.452;2024-03-23T08:27:56;3.97;;;1.70;;
54261;SDS011;40174;52.364;6.452;2024-03-23T08:30:22;8.88;;;1.73;;
54261;SDS011;40174;52.364;6.452;2024-03-23T08:32:48;9.93;;;1.05;;
54261;SDS011;40174;52.364;6.452;2024-03-23T08:35:15;9.77;;;1.67;;
54261;SDS011;40174;52.364;6.452;2024-03-23T08:37:41;7.47;;;2.33;;
54261;SDS011;40174;52.364;6.452;2024-03-23T08:40:09;6.18;;;2.17;;
54261;SDS011;40174;52.364;6.452;2024-03-23T08:42:35;10.60;;;2.50;;
54261;SDS011;40174;52.364;6.452;2024-03-23T08:45:02;5.05;;;1.70;;
54261;SDS011;40174;52.364;6.452;2024-03-23T08:47:28;5.07;;;1.35;;
54261;SDS011;40174;52.364;6.452;2024-03-23T08:49:55;10.27;;;1.88;;
54261;SDS011;40174;52.364;6.452;2024-03-23T08:52:20;5.10;;;1.52;;
54261;SDS011;40174;52.364;6.452;2024-03-23T08:54:48;6.60;;;1.63;;
54261;SDS011;40174;52.364;6.452;2024-03-23T08:57:15;8.65;;;1.70;;
54261;SDS011;40174;52.364;6.452;2024-03-23T08:59:41;6.60;;;1.67;;
54261;SDS011;40174;52.364;6.452;2024-03-23T09:02:07;7.25;;;2.10;;
54261;SDS011;40174;52.364;6.452;2024-03-23T09:04:34;9.73;;;1.88;;
54261;SDS011;40174;52.364;6.452;2024-03-23T09:07:00;4.95;;;1.55;;
54261;SDS011;40174;52.364;6.452;2024-03-23T09:09:26;8.02;;;2.22;;
54261;SDS011;40174;52.364;6.452;2024-03-23T09:11:52;5.65;;;1.30;;
54261;SDS011;40174;52.364;6.452;2024-03-23T09:14:21;4.50;;;1.45;;
54261;SDS011;40174;52.364;6.452;2024-03-23T09:16:49;2.95;;;1.50;;
54261;SDS011;40174;52.364;6.452;2024-03-23T09:19:16;5.50;;;1.80;;
54261;SDS011;40174;52.364;6.452;2024-03-23T09:21:42;7.03;;;1.27;;
54261;SDS011;40174;52.364;6.452;2024-03-23T09:24:09;9.00;;;1.73;;
54261;SDS011;40174;52.364;6.452;2024-03-23T09:26:34;6.85;;;2.20;;
54261;SDS011;40174;52.364;6.452;2024-03-23T09:29:01;1.73;;;0.90;;
54261;SDS011;40174;52.364;6.452;2024-03-23T09:31:28;5.68;;;1.10;;
54261;SDS011;40174;52.364;6.452;2024-03-23T09:33:56;5.53;;;0.80;;
54261;SDS011;40174;52.364;6.452;2024-03-23T09:36:24;9.77;;;1.75;;
54261;SDS011;40174;52.364;6.452;2024-03-23T09:38:50;8.00;;;1.33;;
54261;SDS011;40174;52.364;6.452;2024-03-23T09:41:16;1.92;;;0.95;;
54261;SDS011;40174;52.364;6.452;2024-03-23T09:43:42;2.55;;;0.90;;
54261;SDS011;40174;52.364;6.452;2024-03-23T09:46:08;10.10;;;1.00;;
54261;SDS011;40174;52.364;6.452;2024-03-23T09:48:36;8.82;;;1.58;;
54261;SDS011;40174;52.364;6.452;2024-03-23T09:51:02;6.28;;;1.33;;
54261;SDS011;40174;52.364;6.452;2024-03-23T09:53:29;2.63;;;0.80;;
54261;SDS011;40174;52.364;6.452;2024-03-23T09:55:55;4.45;;;1.23;;
54261;SDS011;40174;52.364;6.452;2024-03-23T09:58:23;10.45;;;1.58;;
54261;SDS011;40174;52.364;6.452;2024-03-23T10:00:49;4.47;;;1.30;;
54261;SDS011;40174;52.364;6.452;2024-03-23T10:03:15;5.50;;;1.20;;
54261;SDS011;40174;52.364;6.452;2024-03-23T10:05:42;7.45;;;1.40;;
54261;SDS011;40174;52.364;6.452;2024-03-23T10:08:17;6.72;;;0.90;;
54261;SDS011;40174;52.364;6.452;2024-03-23T10:10:44;7.07;;;0.90;;
54261;SDS011;40174;52.364;6.452;2024-03-23T10:13:23;1.17;;;0.60;;
54261;SDS011;40174;52.364;6.452;2024-03-23T10:15:54;7.53;;;1.00;;
54261;SDS011;40174;52.364;6.452;2024-03-23T10:18:21;3.92;;;0.63;;
54261;SDS011;40174;52.364;6.452;2024-03-23T10:20:50;4.05;;;1.42;;
54261;SDS011;40174;52.364;6.452;2024-03-23T10:23:17;1.65;;;0.30;;
54261;SDS011;40174;52.364;6.452;2024-03-23T10:25:43;1.77;;;0.40;;
54261;SDS011;40174;52.364;6.452;2024-03-23T10:28:11;1.83;;;0.50;;
54261;SDS011;40174;52.364;6.452;2024-03-23T10:30:37;4.50;;;0.40;;
54261;SDS011;40174;52.364;6.452;2024-03-23T10:33:07;2.75;;;0.47;;
54261;SDS011;40174;52.364;6.452;2024-03-23T10:35:33;0.93;;;0.40;;
54261;SDS011;40174;52.364;6.452;2024-03-23T10:38:01;7.82;;;1.00;;
54261;SDS011;40174;52.364;6.452;2024-03-23T10:40:30;5.35;;;0.70;;
54261;SDS011;40174;52.364;6.452;2024-03-23T10:42:57;1.23;;;0.45;;
54261;SDS011;40174;52.364;6.452;2024-03-23T10:45:23;2.15;;;0.30;;
54261;SDS011;40174;52.364;6.452;2024-03-23T10:47:50;0.73;;;0.50;;
54261;SDS011;40174;52.364;6.452;2024-03-23T10:50:17;0.13;;;0.13;;
54261;SDS011;40174;52.364;6.452;2024-03-23T10:52:45;1.10;;;0.30;;
54261;SDS011;40174;52.364;6.452;2024-03-23T10:55:13;5.68;;;0.57;;
54261;SDS011;40174;52.364;6.452;2024-03-23T10:57:44;2.08;;;0.65;;
54261;SDS011;40174;52.364;6.452;2024-03-23T11:00:13;5.97;;;0.98;;
54261;SDS011;40174;52.364;6.452;2024-03-23T11:02:44;4.55;;;0.57;;
54261;SDS011;40174;52.364;6.452;2024-03-23T11:07:57;4.43;;;0.50;;
54261;SDS011;40174;52.364;6.452;2024-03-23T11:10:28;6.03;;;1.02;;
54261;SDS011;40174;52.364;6.452;2024-03-23T11:12:55;3.70;;;0.85;;
54261;SDS011;40174;52.364;6.452;2024-03-23T11:15:21;3.75;;;0.50;;
54261;SDS011;40174;52.364;6.452;2024-03-23T11:18:03;4.80;;;0.70;;
54261;SDS011;40174;52.364;6.452;2024-03-23T11:20:33;0.63;;;0.30;;
54261;SDS011;40174;52.364;6.452;2024-03-23T11:23:00;1.15;;;0.30;;
54261;SDS011;40174;52.364;6.452;2024-03-23T11:25:28;2.47;;;0.57;;
54261;SDS011;40174;52.364;6.452;2024-03-23T11:27:57;5.60;;;0.82;;
54261;SDS011;40174;52.364;6.452;2024-03-23T11:30:24;1.98;;;0.38;;
54261;SDS011;40174;52.364;6.452;2024-03-23T11:32:51;1.15;;;0.50;;
54261;SDS011;40174;52.364;6.452;2024-03-23T11:35:25;4.57;;;0.90;;
54261;SDS011;40174;52.364;6.452;2024-03-23T11:38:06;3.60;;;0.50;;
54261;SDS011;40174;52.364;6.452;2024-03-23T11:40:34;4.45;;;0.68;;
54261;SDS011;40174;52.364;6.452;2024-03-23T11:43:02;1.75;;;0.50;;
54261;SDS011;40174;52.364;6.452;2024-03-23T11:45:31;3.65;;;0.90;;
54261;SDS011;40174;52.364;6.452;2024-03-23T11:48:01;1.45;;;0.50;;
54261;SDS011;40174;52.364;6.452;2024-03-23T11:50:30;0.70;;;0.45;;
54261;SDS011;40174;52.364;6.452;2024-03-23T11:53:06;5.43;;;0.73;;
54261;SDS011;40174;52.364;6.452;2024-03-23T11:55:41;1.20;;;0.45;;
54261;SDS011;40174;52.364;6.452;2024-03-23T11:58:08;2.90;;;0.50;;
54261;SDS011;40174;52.364;6.452;2024-03-23T12:00:34;3.08;;;0.63;;
54261;SDS011;40174;52.364;6.452;2024-03-23T12:03:01;4.55;;;0.80;;
54261;SDS011;40174;52.364;6.452;2024-03-23T12:05:27;2.55;;;0.75;;
54261;SDS011;40174;52.364;6.452;2024-03-23T12:07:54;5.45;;;0.63;;
54261;SDS011;40174;52.364;6.452;2024-03-23T12:10:20;2.10;;;0.40;;
54261;SDS011;40174;52.364;6.452;2024-03-23T12:12:58;3.38;;;0.50;;
54261;SDS011;40174;52.364;6.452;2024-03-23T12:15:26;2.08;;;0.43;;
54261;SDS011;40174;52.364;6.452;2024-03-23T12:17:52;1.23;;;0.22;;
54261;SDS011;40174;52.364;6.452;2024-03-23T12:20:32;0.43;;;0.20;;
54261;SDS011;40174;52.364;6.452;2024-03-23T12:23:04;1.15;;;0.20;;
54261;SDS011;40174;52.364;6.452;2024-03-23T12:25:31;1.33;;;0.20;;
54261;SDS011;40174;52.364;6.452;2024-03-23T12:27:58;0.65;;;0.25;;
54261;SDS011;40174;52.364;6.452;2024-03-23T12:30:25;3.25;;;0.40;;
54261;SDS011;40174;52.364;6.452;2024-03-23T12:32:51;5.47;;;0.82;;
54261;SDS011;40174;52.364;6.452;2024-03-23T12:35:17;8.18;;;1.00;;
54261;SDS011;40174;52.364;6.452;2024-03-23T12:37:46;1.35;;;0.40;;
54261;SDS011;40174;52.364;6.452;2024-03-23T12:40:13;3.30;;;0.70;;
54261;SDS011;40174;52.364;6.452;2024-03-23T12:42:38;3.60;;;0.68;;
54261;SDS011;40174;52.364;6.452;2024-03-23T12:45:07;4.72;;;0.70;;
54261;SDS011;40174;52.364;6.452;2024-03-23T12:47:33;1.20;;;0.57;;
54261;SDS011;40174;52.364;6.452;2024-03-23T12:50:00;5.82;;;0.90;;
54261;SDS011;40174;52.364;6.452;2024-03-23T12:52:25;4.97;;;0.70;;
54261;SDS011;40174;52.364;6.452;2024-03-23T12:54:54;1.45;;;0.75;;
54261;SDS011;40174;52.364;6.452;2024-03-23T12:57:21;2.83;;;0.80;;
54261;SDS011;40174;52.364;6.452;2024-03-23T12:59:49;5.00;;;0.80;;
54261;SDS011;40174;52.364;6.452;2024-03-23T13:02:17;3.70;;;1.42;;
54261;SDS011;40174;52.364;6.452;2024-03-23T13:04:45;3.47;;;0.50;;
54261;SDS011;40174;52.364;6.452;2024-03-23T13:07:12;1.70;;;0.68;;
54261;SDS011;40174;52.364;6.452;2024-03-23T13:09:39;4.53;;;0.85;;
54261;SDS011;40174;52.364;6.452;2024-03-23T13:12:05;5.40;;;0.88;;
54261;SDS011;40174;52.364;6.452;2024-03-23T13:14:32;4.25;;;0.82;;
54261;SDS011;40174;52.364;6.452;2024-03-23T13:16:58;4.60;;;0.40;;
54261;SDS011;40174;52.364;6.452;2024-03-23T13:19:26;3.35;;;0.70;;
54261;SDS011;40174;52.364;6.452;2024-03-23T13:21:53;7.60;;;0.73;;
54261;SDS011;40174;52.364;6.452;2024-03-23T13:24:21;5.50;;;0.68;;
54261;SDS011;40174;52.364;6.452;2024-03-23T13:26:47;2.30;;;0.60;;
54261;SDS011;40174;52.364;6.452;2024-03-23T13:29:14;4.68;;;1.10;;
54261;SDS011;40174;52.364;6.452;2024-03-23T13:31:39;3.95;;;0.60;;
54261;SDS011;40174;52.364;6.452;2024-03-23T13:34:06;2.28;;;0.65;;
54261;SDS011;40174;52.364;6.452;2024-03-23T13:36:33;1.00;;;0.40;;
54261;SDS011;40174;52.364;6.452;2024-03-23T13:39:00;10.25;;;1.00;;
54261;SDS011;40174;52.364;6.452;2024-03-23T13:41:27;3.47;;;0.75;;
54261;SDS011;40174;52.364;6.452;2024-03-23T13:43:54;5.35;;;0.43;;
54261;SDS011;40174;52.364;6.452;2024-03-23T13:46:19;1.70;;;0.70;;
54261;SDS011;40174;52.364;6.452;2024-03-23T13:48:46;3.92;;;0.60;;
54261;SDS011;40174;52.364;6.452;2024-03-23T13:51:12;2.17;;;0.65;;
54261;SDS011;40174;52.364;6.452;2024-03-23T13:53:40;1.73;;;0.65;;
54261;SDS011;40174;52.364;6.452;2024-03-23T13:56:06;6.40;;;1.17;;
54261;SDS011;40174;52.364;6.452;2024-03-23T13:58:32;1.25;;;0.40;;
54261;SDS011;40174;52.364;6.452;2024-03-23T14:00:58;2.55;;;0.80;;
54261;SDS011;40174;52.364;6.452;2024-03-23T14:03:25;0.40;;;0.13;;
54261;SDS011;40174;52.364;6.452;2024-03-23T14:05:50;4.28;;;0.45;;
54261;SDS011;40174;52.364;6.452;2024-03-23T14:08:18;3.15;;;0.35;;
54261;SDS011;40174;52.364;6.452;2024-03-23T14:10:45;5.90;;;0.55;;
54261;SDS011;40174;52.364;6.452;2024-03-23T14:13:11;5.68;;;0.73;;
54261;SDS011;40174;52.364;6.452;2024-03-23T14:15:37;0.55;;;0.30;;
54261;SDS011;40174;52.364;6.452;2024-03-23T14:18:04;2.53;;;0.60;;
54261;SDS011;40174;52.364;6.452;2024-03-23T14:20:30;2.75;;;0.40;;
54261;SDS011;40174;52.364;6.452;2024-03-23T14:22:56;1.60;;;0.38;;
54261;SDS011;40174;52.364;6.452;2024-03-23T14:25:22;0.85;;;0.35;;
54261;SDS011;40174;52.364;6.452;2024-03-23T14:27:53;6.10;;;1.00;;
54261;SDS011;40174;52.364;6.452;2024-03-23T14:30:19;3.83;;;0.43;;
54261;SDS011;40174;52.364;6.452;2024-03-23T14:32:46;2.65;;;0.32;;
54261;SDS011;40174;52.364;6.452;2024-03-23T14:35:11;2.28;;;0.22;;
54261;SDS011;40174;52.364;6.452;2024-03-23T14:37:38;0.30;;;0.30;;
54261;SDS011;40174;52.364;6.452;2024-03-23T14:40:04;5.78;;;0.70;;
54261;SDS011;40174;52.364;6.452;2024-03-23T14:42:31;4.10;;;0.40;;
54261;SDS011;40174;52.364;6.452;2024-03-23T14:44:59;6.05;;;0.73;;
54261;SDS011;40174;52.364;6.452;2024-03-23T14:47:25;4.18;;;0.63;;
54261;SDS011;40174;52.364;6.452;2024-03-23T14:49:51;7.00;;;0.60;;
54261;SDS011;40174;52.364;6.452;2024-03-23T14:52:18;5.03;;;0.73;;
54261;SDS011;40174;52.364;6.452;2024-03-23T14:54:44;1.88;;;0.28;;
54261;SDS011;40174;52.364;6.452;2024-03-23T14:57:11;6.93;;;0.52;;
54261;SDS011;40174;52.364;6.452;2024-03-23T14:59:37;2.38;;;0.55;;
54261;SDS011;40174;52.364;6.452;2024-03-23T15:02:07;4.22;;;0.75;;
54261;SDS011;40174;52.364;6.452;2024-03-23T15:04:33;4.30;;;0.85;;
54261;SDS011;40174;52.364;6.452;2024-03-23T15:06:59;6.07;;;0.85;;
54261;SDS011;40174;52.364;6.452;2024-03-23T15:09:25;0.22;;;0.22;;
54261;SDS011;40174;52.364;6.452;2024-03-23T15:11:52;2.95;;;0.60;;
54261;SDS011;40174;52.364;6.452;2024-03-23T15:14:20;3.78;;;0.50;;
54261;SDS011;40174;52.364;6.452;2024-03-23T15:16:46;4.28;;;0.50;;
54261;SDS011;40174;52.364;6.452;2024-03-23T15:19:15;0.22;;;0.22;;
54261;SDS011;40174;52.364;6.452;2024-03-23T15:21:42;1.90;;;0.40;;
54261;SDS011;40174;52.364;6.452;2024-03-23T15:24:08;2.35;;;0.35;;
54261;SDS011;40174;52.364;6.452;2024-03-23T15:26:36;1.45;;;0.47;;
54261;SDS011;40174;52.364;6.452;2024-03-23T15:29:02;5.95;;;0.47;;
54261;SDS011;40174;52.364;6.452;2024-03-23T15:31:38;1.55;;;0.30;;
54261;SDS011;40174;52.364;6.452;2024-03-23T15:34:04;1.98;;;0.50;;
54261;SDS011;40174;52.364;6.452;2024-03-23T15:36:36;3.10;;;0.35;;
54261;SDS011;40174;52.364;6.452;2024-03-23T15:39:03;1.65;;;0.35;;